createdAt,value
2018-12-10T00:00:20.489Z,81.23
2018-12-10T00:01:20.479Z,82.78
2018-12-10T00:02:20.468Z,82.16
2018-12-10T00:03:20.476Z,82.06
2018-12-10T00:04:20.451Z,81.99
2018-12-10T00:05:20.436Z,81.85
2018-12-10T00:06:20.427Z,82.26
2018-12-10T00:07:20.415Z,82.10
2018-12-10T00:08:20.422Z,81.44
2018-12-10T00:09:20.395Z,83.13
2018-12-10T00:10:20.393Z,82.47
2018-12-10T00:11:20.372Z,82.40
2018-12-10T00:12:20.362Z,82.10
2018-12-10T00:13:20.365Z,82.51
2018-12-10T00:14:20.340Z,83.85
2018-12-10T00:15:20.329Z,83.54
2018-12-10T00:16:20.325Z,83.27
2018-12-10T00:17:20.312Z,84.51
2018-12-10T00:18:20.311Z,84.20
2018-12-10T00:19:20.287Z,83.27
2018-12-10T00:20:20.282Z,82.45
2018-12-10T00:21:20.269Z,81.89
2018-12-10T00:22:20.258Z,83.54
2018-12-10T00:23:20.262Z,83.03
2018-12-10T00:24:20.236Z,83.54
2018-12-10T00:25:20.244Z,83.03
2018-12-10T00:26:20.224Z,83.33
2018-12-10T00:27:20.205Z,82.03
2018-12-10T00:28:20.208Z,81.93
2018-12-10T00:29:20.188Z,81.99
2018-12-10T00:30:20.171Z,81.58
2018-12-10T00:31:20.160Z,81.68
2018-12-10T00:32:20.155Z,81.93
2018-12-10T00:33:20.152Z,81.89
2018-12-10T00:34:20.128Z,81.82
2018-12-10T00:35:20.118Z,80.90
2018-12-10T00:36:20.109Z,82.14
2018-12-10T00:37:20.099Z,81.62
2018-12-10T00:38:20.099Z,82.07
2018-12-10T00:39:20.077Z,81.56
2018-12-10T00:40:20.066Z,82.31
2018-12-10T00:41:20.055Z,82.31
2018-12-10T00:42:20.043Z,83.55
2018-12-10T00:43:20.048Z,82.62
2018-12-10T00:44:20.024Z,82.10
2018-12-10T00:45:20.021Z,82.48
2018-12-10T00:46:20.001Z,80.73
2018-12-10T00:47:19.990Z,81.56
2018-12-10T00:48:19.994Z,80.93
2018-12-10T00:49:19.968Z,80.28
2018-12-10T00:50:19.957Z,80.28
2018-12-10T00:51:19.954Z,80.90
2018-12-10T00:52:19.938Z,81.31
2018-12-10T00:53:19.939Z,80.18
2018-12-10T00:54:19.916Z,81.10
2018-12-10T00:55:19.905Z,80.58
2018-12-10T00:56:19.894Z,79.66
2018-12-10T00:57:19.890Z,79.04
2018-12-10T00:58:20.156Z,79.21
2018-12-10T00:59:19.866Z,80.69
2018-12-10T01:00:19.852Z,79.41
2018-12-10T01:01:19.924Z,79.72
2018-12-10T01:02:19.829Z,79.86
2018-12-10T01:03:19.832Z,80.14
2018-12-10T01:04:19.821Z,80.48
2018-12-10T01:05:19.803Z,80.48
2018-12-10T01:06:19.787Z,80.28
2018-12-10T01:07:19.776Z,79.86
2018-12-10T01:08:19.764Z,79.35
2018-12-10T01:09:19.770Z,79.76
2018-12-10T01:10:19.748Z,79.66
2018-12-10T01:11:19.897Z,79.45
2018-12-10T01:12:19.724Z,80.18
2018-12-10T01:13:19.727Z,80.28
2018-12-10T01:14:19.716Z,80.69
2018-12-10T01:15:19.696Z,81.14
2018-12-10T01:16:19.681Z,78.83
2018-12-10T01:17:19.671Z,79.55
2018-12-10T01:18:19.665Z,79.35
2018-12-10T01:19:19.665Z,79.45
2018-12-10T01:20:19.639Z,79.25
2018-12-10T01:21:19.628Z,79.97
2018-12-10T01:22:19.615Z,80.58
2018-12-10T01:23:19.608Z,80.00
2018-12-10T01:24:19.606Z,79.80
2018-12-10T01:25:19.583Z,78.14
2018-12-10T01:26:19.572Z,79.14
2018-12-10T01:27:19.563Z,80.11
2018-12-10T01:28:19.551Z,78.77
2018-12-10T01:29:19.576Z,79.14
2018-12-10T01:30:19.530Z,79.80
2018-12-10T01:31:19.519Z,79.38
2018-12-10T01:32:19.508Z,79.80
2018-12-10T01:33:19.500Z,79.38
2018-12-10T01:34:19.503Z,79.08
2018-12-10T01:35:19.481Z,79.28
2018-12-10T01:36:19.467Z,80.93
2018-12-10T01:37:19.455Z,79.69
2018-12-10T01:38:19.444Z,79.08
2018-12-10T01:39:19.447Z,80.52
2018-12-10T01:40:19.424Z,78.45
2018-12-10T01:41:19.416Z,80.00
2018-12-10T01:42:19.404Z,79.01
2018-12-10T01:43:19.390Z,78.87
2018-12-10T01:44:19.391Z,80.32
2018-12-10T01:45:19.371Z,79.38
2018-12-10T01:46:19.359Z,78.77
2018-12-10T01:47:19.363Z,79.28
2018-12-10T01:48:19.340Z,78.97
2018-12-10T01:49:19.342Z,79.73
2018-12-10T01:50:19.317Z,79.49
2018-12-10T01:51:19.306Z,80.25
2018-12-10T01:52:19.295Z,80.52
2018-12-10T01:53:19.283Z,81.80
2018-12-10T01:54:19.290Z,80.25
2018-12-10T01:55:19.270Z,80.66
2018-12-10T01:56:19.253Z,80.66
2018-12-10T01:57:19.240Z,80.66
2018-12-10T01:58:19.234Z,81.70
2018-12-10T01:59:19.232Z,82.25
2018-12-10T02:00:19.214Z,81.11
2018-12-10T02:01:19.209Z,80.49
2018-12-10T02:02:19.187Z,82.25
2018-12-10T02:03:19.176Z,81.94
2018-12-10T02:04:19.178Z,82.76
2018-12-10T02:05:19.156Z,82.56
2018-12-10T02:06:19.144Z,82.35
2018-12-10T02:07:19.144Z,82.35
2018-12-10T02:08:19.124Z,81.21
2018-12-10T02:09:19.125Z,82.25
2018-12-10T02:10:19.101Z,82.87
2018-12-10T02:11:19.091Z,80.25
2018-12-10T02:12:19.080Z,81.52
2018-12-10T02:13:19.080Z,81.01
2018-12-10T02:14:19.071Z,82.15
2018-12-10T02:15:19.048Z,80.80
2018-12-10T02:16:19.040Z,81.07
2018-12-10T02:17:19.029Z,82.73
2018-12-10T02:18:19.020Z,82.00
2018-12-10T02:19:19.027Z,82.21
2018-12-10T02:20:18.996Z,83.65
2018-12-10T02:21:18.987Z,82.21
2018-12-10T02:22:18.974Z,81.49
2018-12-10T02:23:18.963Z,81.80
2018-12-10T02:24:18.972Z,81.18
2018-12-10T02:25:18.945Z,80.25
2018-12-10T02:26:18.935Z,79.52
2018-12-10T02:27:18.921Z,79.66
2018-12-10T02:28:18.910Z,79.49
2018-12-10T02:29:18.912Z,78.56
2018-12-10T02:30:18.888Z,79.35
2018-12-10T02:31:18.876Z,78.97
2018-12-10T02:32:18.874Z,78.35
2018-12-10T02:33:18.858Z,78.42
2018-12-10T02:34:18.859Z,78.11
2018-12-10T02:35:18.834Z,78.31
2018-12-10T02:36:18.829Z,78.21
2018-12-10T02:37:18.813Z,78.31
2018-12-10T02:38:18.810Z,79.55
2018-12-10T02:39:18.804Z,80.07
2018-12-10T02:40:18.784Z,79.25
2018-12-10T02:41:18.774Z,79.45
2018-12-10T02:42:18.759Z,80.38
2018-12-10T02:43:18.760Z,80.18
2018-12-10T02:44:18.755Z,79.80
2018-12-10T02:45:18.728Z,79.90
2018-12-10T02:46:18.718Z,79.38
2018-12-10T02:47:18.707Z,79.80
2018-12-10T02:48:18.698Z,79.49
2018-12-10T02:49:18.697Z,78.83
2018-12-10T02:50:18.683Z,79.35
2018-12-10T02:51:18.663Z,79.55
2018-12-10T02:52:18.656Z,80.62
2018-12-10T02:53:18.646Z,80.00
2018-12-10T02:54:18.646Z,80.62
2018-12-10T02:55:18.620Z,80.32
2018-12-10T02:56:18.619Z,79.90
2018-12-10T02:57:18.607Z,81.86
2018-12-10T02:58:18.590Z,79.59
2018-12-10T02:59:18.592Z,78.87
2018-12-10T03:00:18.566Z,80.52
2018-12-10T03:01:18.556Z,79.90
2018-12-10T03:02:18.546Z,80.42
2018-12-10T03:03:18.541Z,80.93
2018-12-10T03:04:18.537Z,81.56
2018-12-10T03:05:18.515Z,80.62
2018-12-10T03:06:18.502Z,80.83
2018-12-10T03:07:18.491Z,80.32
2018-12-10T03:08:18.484Z,80.62
2018-12-10T03:09:18.490Z,82.17
2018-12-10T03:10:18.464Z,81.90
2018-12-10T03:11:18.450Z,81.90
2018-12-10T03:12:18.440Z,81.80
2018-12-10T03:13:18.427Z,83.65
2018-12-10T03:14:18.433Z,83.65
2018-12-10T03:15:18.406Z,83.76
2018-12-10T03:16:18.586Z,83.45
2018-12-10T03:17:18.388Z,84.21
2018-12-10T03:18:18.376Z,83.70
2018-12-10T03:19:18.379Z,84.42
2018-12-10T03:20:18.354Z,83.07
2018-12-10T03:21:18.349Z,82.35
2018-12-10T03:22:18.335Z,82.04
2018-12-10T03:23:18.335Z,84.31
2018-12-10T03:24:18.326Z,83.49
2018-12-10T03:25:18.299Z,81.59
2018-12-10T03:26:18.289Z,81.14
2018-12-10T03:27:18.281Z,80.52
2018-12-10T03:28:18.268Z,79.80
2018-12-10T03:29:18.277Z,80.00
2018-12-10T03:30:18.262Z,82.07
2018-12-10T03:31:18.237Z,83.89
2018-12-10T03:32:18.228Z,83.62
2018-12-10T03:33:18.216Z,85.27
2018-12-10T03:34:18.217Z,86.92
2018-12-10T03:35:18.197Z,87.48
2018-12-10T03:36:18.187Z,85.10
2018-12-10T03:37:18.177Z,84.59
2018-12-10T03:38:18.170Z,87.58
2018-12-10T03:39:18.164Z,89.44
2018-12-10T03:40:18.140Z,89.59
2018-12-10T03:41:18.128Z,89.17
2018-12-10T03:42:18.116Z,90.77
2018-12-10T03:43:18.108Z,90.56
2018-12-10T03:44:18.382Z,91.07
2018-12-10T03:45:18.087Z,91.38
2018-12-10T03:46:18.080Z,91.28
2018-12-10T03:47:18.064Z,92.46
2018-12-10T03:48:18.055Z,90.35
2018-12-10T03:49:18.043Z,90.87
2018-12-10T03:50:18.059Z,91.90
2018-12-10T03:51:18.025Z,92.63
2018-12-10T03:52:18.016Z,92.32
2018-12-10T03:53:18.002Z,92.32
2018-12-10T03:54:17.992Z,93.18
2018-12-10T03:55:17.997Z,93.29
2018-12-10T03:56:17.976Z,93.29
2018-12-10T03:57:17.970Z,94.01
2018-12-10T03:58:17.950Z,94.26
2018-12-10T03:59:17.941Z,94.43
2018-12-10T04:00:17.943Z,94.16
2018-12-10T04:01:17.919Z,94.47
2018-12-10T04:02:17.906Z,94.37
2018-12-10T04:03:17.902Z,94.32
2018-12-10T04:04:17.885Z,94.47
2018-12-10T04:05:17.888Z,94.98
2018-12-10T04:06:17.862Z,95.19
2018-12-10T04:07:17.854Z,95.40
2018-12-10T04:08:17.843Z,96.23
2018-12-10T04:09:17.838Z,95.40
2018-12-10T04:10:17.876Z,95.61
2018-12-10T04:11:17.815Z,95.50
2018-12-10T04:12:17.799Z,96.33
2018-12-10T04:13:17.806Z,95.29
2018-12-10T04:14:17.787Z,95.61
2018-12-10T04:15:17.797Z,95.61
2018-12-10T04:16:17.761Z,96.12
2018-12-10T04:17:17.745Z,96.54
2018-12-10T04:18:17.742Z,96.54
2018-12-10T04:19:17.729Z,96.02
2018-12-10T04:20:17.757Z,96.06
2018-12-10T04:21:17.706Z,96.23
2018-12-10T04:22:17.692Z,96.17
2018-12-10T04:23:17.685Z,96.17
2018-12-10T04:24:17.671Z,96.17
2018-12-10T04:25:17.678Z,96.11
2018-12-10T04:26:17.650Z,96.31
2018-12-10T04:27:17.643Z,96.11
2018-12-10T04:28:17.627Z,96.26
2018-12-10T04:29:17.617Z,96.11
2018-12-10T04:30:17.621Z,96.62
2018-12-10T04:31:17.605Z,96.67
2018-12-10T04:32:17.587Z,96.47
2018-12-10T04:33:17.577Z,96.36
2018-12-10T04:34:17.568Z,96.67
2018-12-10T04:35:17.567Z,96.47
2018-12-10T04:36:17.545Z,96.67
2018-12-10T04:37:17.536Z,96.21
2018-12-10T04:38:17.537Z,96.21
2018-12-10T04:39:17.545Z,95.70
2018-12-10T04:40:17.525Z,95.64
2018-12-10T04:41:17.493Z,95.59
2018-12-10T04:42:17.492Z,95.53
2018-12-10T04:43:17.470Z,96.05
2018-12-10T04:44:17.465Z,96.26
2018-12-10T04:45:17.474Z,96.15
2018-12-10T04:46:17.456Z,96.57
2018-12-10T04:47:17.426Z,96.57
2018-12-10T04:48:17.545Z,96.47
2018-12-10T04:49:17.405Z,96.57
2018-12-10T04:50:17.407Z,96.47
2018-12-10T04:51:17.392Z,96.67
2018-12-10T04:52:17.382Z,97.25
2018-12-10T04:53:17.363Z,96.88
2018-12-10T04:54:17.354Z,96.98
2018-12-10T04:55:17.360Z,97.29
2018-12-10T04:56:17.345Z,96.26
2018-12-10T04:57:17.321Z,96.47
2018-12-10T04:58:17.318Z,96.57
2018-12-10T04:59:17.300Z,96.67
2018-12-10T05:00:17.305Z,96.57
2018-12-10T05:01:17.284Z,96.31
2018-12-10T05:02:17.277Z,97.19
2018-12-10T05:03:17.260Z,96.52
2018-12-10T05:04:17.251Z,96.73
2018-12-10T05:05:17.271Z,96.31
2018-12-10T05:06:17.325Z,96.42
2018-12-10T05:07:17.218Z,96.62
2018-12-10T05:08:17.207Z,96.52
2018-12-10T05:09:17.197Z,96.52
2018-12-10T05:10:17.189Z,96.01
2018-12-10T05:11:17.201Z,96.31
2018-12-10T05:12:17.164Z,96.01
2018-12-10T05:13:17.155Z,95.54
2018-12-10T05:14:17.143Z,95.44
2018-12-10T05:15:17.134Z,95.54
2018-12-10T05:16:17.136Z,95.24
2018-12-10T05:17:17.125Z,95.54
2018-12-10T05:18:17.106Z,95.24
2018-12-10T05:19:17.094Z,95.44
2018-12-10T05:20:17.086Z,95.54
2018-12-10T05:21:17.085Z,95.80
2018-12-10T05:22:17.061Z,95.65
2018-12-10T05:23:17.053Z,95.65
2018-12-10T05:24:17.050Z,96.01
2018-12-10T05:25:17.030Z,96.17
2018-12-10T05:26:17.037Z,96.11
2018-12-10T05:27:17.012Z,96.58
2018-12-10T05:28:17.009Z,96.58
2018-12-10T05:29:16.988Z,96.52
2018-12-10T05:30:16.990Z,97.25
2018-12-10T05:31:16.982Z,96.42
2018-12-10T05:32:16.958Z,96.37
2018-12-10T05:33:16.948Z,96.94
2018-12-10T05:34:16.937Z,96.83
2018-12-10T05:35:16.928Z,96.83
2018-12-10T05:36:16.937Z,96.42
2018-12-10T05:37:16.905Z,95.49
2018-12-10T05:38:16.894Z,95.34
2018-12-10T05:39:16.883Z,95.75
2018-12-10T05:40:16.876Z,95.75
2018-12-10T05:41:16.957Z,96.06
2018-12-10T05:42:16.859Z,96.06
2018-12-10T05:43:16.850Z,96.27
2018-12-10T05:44:16.832Z,96.37
2018-12-10T05:45:16.820Z,97.00
2018-12-10T05:46:16.836Z,96.79
2018-12-10T05:47:16.800Z,97.20
2018-12-10T05:48:16.795Z,97.00
2018-12-10T05:49:16.786Z,96.89
2018-12-10T05:50:16.771Z,97.52
2018-12-10T05:51:16.758Z,97.72
2018-12-10T05:52:16.762Z,97.72
2018-12-10T05:53:16.736Z,97.83
2018-12-10T05:54:16.731Z,97.83
2018-12-10T05:55:16.714Z,97.93
2018-12-10T05:56:16.773Z,98.24
2018-12-10T05:57:16.711Z,98.55
2018-12-10T05:58:17.703Z,98.55
2018-12-10T05:59:16.673Z,98.55
2018-12-10T06:00:16.674Z,98.24
2018-12-10T06:01:16.712Z,98.18
2018-12-10T06:02:16.666Z,98.39
2018-12-10T06:03:16.631Z,98.49
2018-12-10T06:04:16.619Z,98.60
2018-12-10T06:05:16.717Z,99.11
2018-12-10T06:06:16.601Z,98.70
2018-12-10T06:07:16.603Z,98.95
2018-12-10T06:08:16.583Z,99.05
2018-12-10T06:09:16.570Z,98.43
2018-12-10T06:10:16.557Z,98.17
2018-12-10T06:11:16.546Z,98.27
2018-12-10T06:12:16.552Z,98.27
2018-12-10T06:13:16.525Z,99.04
2018-12-10T06:14:16.515Z,98.83
2018-12-10T06:15:16.512Z,98.83
2018-12-10T06:16:16.796Z,99.35
2018-12-10T06:17:16.498Z,99.56
2018-12-10T06:18:16.473Z,99.72
2018-12-10T06:19:16.464Z,99.82
2018-12-10T06:20:16.453Z,99.82
2018-12-10T06:21:16.446Z,99.93
2018-12-10T06:22:16.448Z,99.78
2018-12-10T06:23:16.423Z,99.68
2018-12-10T06:24:16.431Z,99.57
2018-12-10T06:25:16.402Z,99.37
2018-12-10T06:26:16.443Z,99.47
2018-12-10T06:27:16.401Z,99.78
2018-12-10T06:28:16.370Z,99.47
2018-12-10T06:29:16.359Z,99.99
2018-12-10T06:30:16.467Z,99.68
2018-12-10T06:31:16.338Z,99.05
2018-12-10T06:32:16.344Z,98.95
2018-12-10T06:33:16.319Z,99.78
2018-12-10T06:34:16.359Z,99.68
2018-12-10T06:35:16.295Z,99.32
2018-12-10T06:36:16.286Z,99.84
2018-12-10T06:37:16.288Z,99.43
2018-12-10T06:38:16.265Z,99.32
2018-12-10T06:39:16.255Z,99.78
2018-12-10T06:40:16.251Z,99.84
2018-12-10T06:41:16.250Z,98.95
2018-12-10T06:42:16.235Z,99.57
2018-12-10T06:43:16.213Z,99.26
2018-12-10T06:44:16.201Z,99.68
2018-12-10T06:45:16.194Z,99.99
2018-12-10T06:46:16.183Z,99.88
2018-12-10T06:47:16.206Z,99.73
2018-12-10T06:48:16.161Z,99.84
2018-12-10T06:49:16.154Z,99.84
2018-12-10T06:50:16.138Z,99.63
2018-12-10T06:51:16.136Z,99.84
2018-12-10T06:52:16.134Z,99.73
2018-12-10T06:53:16.130Z,99.94
2018-12-10T06:54:16.097Z,99.84
2018-12-10T06:55:16.087Z,99.94
2018-12-10T06:56:16.075Z,99.99
2018-12-10T06:57:16.095Z,99.84
2018-12-10T06:58:16.061Z,99.99
2018-12-10T06:59:16.053Z,99.99
2018-12-10T07:00:16.035Z,99.73
2018-12-10T07:01:16.025Z,99.99
2018-12-10T07:02:16.015Z,99.73
2018-12-10T07:03:16.018Z,99.84
2018-12-10T07:04:15.994Z,99.73
2018-12-10T07:05:15.990Z,99.73
2018-12-10T07:06:15.971Z,99.32
2018-12-10T07:07:15.961Z,99.94
2018-12-10T07:08:15.964Z,99.73
2018-12-10T07:09:15.941Z,99.11
2018-12-10T07:10:15.931Z,99.99
2018-12-10T07:11:15.926Z,99.11
2018-12-10T07:12:15.909Z,99.38
2018-12-10T07:13:15.913Z,98.86
2018-12-10T07:14:15.888Z,98.86
2018-12-10T07:15:15.878Z,99.07
2018-12-10T07:16:15.867Z,99.01
2018-12-10T07:17:15.861Z,98.86
2018-12-10T07:18:15.862Z,98.91
2018-12-10T07:19:15.837Z,99.11
2018-12-10T07:20:15.826Z,99.07
2018-12-10T07:21:15.814Z,98.96
2018-12-10T07:22:15.810Z,99.27
2018-12-10T07:23:15.810Z,98.96
2018-12-10T07:24:15.783Z,99.38
2018-12-10T07:25:15.773Z,99.07
2018-12-10T07:26:15.762Z,99.27
2018-12-10T07:27:15.751Z,99.22
2018-12-10T07:28:15.767Z,99.38
2018-12-10T07:29:15.729Z,99.17
2018-12-10T07:30:15.718Z,99.38
2018-12-10T07:31:15.709Z,99.17
2018-12-10T07:32:15.697Z,98.86
2018-12-10T07:33:15.701Z,98.86
2018-12-10T07:34:15.679Z,98.82
2018-12-10T07:35:15.671Z,98.75
2018-12-10T07:36:15.656Z,98.96
2018-12-10T07:37:15.653Z,98.96
2018-12-10T07:38:15.648Z,99.07
2018-12-10T07:39:15.623Z,98.82
2018-12-10T07:40:15.615Z,98.86
2018-12-10T07:41:15.609Z,99.17
2018-12-10T07:42:15.607Z,98.96
2018-12-10T07:43:15.594Z,98.96
2018-12-10T07:44:15.570Z,98.96
2018-12-10T07:45:15.559Z,99.17
2018-12-10T07:46:15.549Z,99.17
2018-12-10T07:47:15.544Z,98.44
2018-12-10T07:48:15.546Z,98.75
2018-12-10T07:49:15.522Z,98.55
2018-12-10T07:50:15.506Z,98.34
2018-12-10T07:51:15.495Z,98.75
2018-12-10T07:52:15.485Z,98.55
2018-12-10T07:53:15.489Z,98.34
2018-12-10T07:54:15.468Z,97.72
2018-12-10T07:55:15.461Z,97.67
2018-12-10T07:56:15.447Z,97.72
2018-12-10T07:57:15.434Z,97.99
2018-12-10T07:58:15.440Z,97.83
2018-12-10T07:59:15.413Z,97.41
2018-12-10T08:00:15.405Z,97.00
2018-12-10T08:01:15.416Z,97.00
2018-12-10T08:02:15.381Z,97.25
2018-12-10T08:03:15.386Z,96.94
2018-12-10T08:04:15.368Z,97.56
2018-12-10T08:05:15.349Z,97.87
2018-12-10T08:06:15.339Z,97.77
2018-12-10T08:07:15.338Z,98.18
2018-12-10T08:08:15.335Z,98.60
2018-12-10T08:09:15.309Z,98.80
2018-12-10T08:10:15.297Z,98.75
2018-12-10T08:11:15.290Z,98.65
2018-12-10T08:12:15.277Z,98.96
2018-12-10T08:13:15.305Z,98.86
2018-12-10T08:14:15.260Z,98.24
2018-12-10T08:15:15.244Z,97.93
2018-12-10T08:16:15.235Z,97.66
2018-12-10T08:17:15.223Z,97.52
2018-12-10T08:18:15.213Z,97.62
2018-12-10T08:19:15.233Z,97.72
2018-12-10T08:20:15.191Z,97.52
2018-12-10T08:21:15.182Z,97.72
2018-12-10T08:22:15.169Z,97.36
2018-12-10T08:23:15.159Z,97.67
2018-12-10T08:24:15.166Z,96.64
2018-12-10T08:25:15.148Z,96.54
2018-12-10T08:26:15.129Z,96.23
2018-12-10T08:27:15.126Z,96.64
2018-12-10T08:28:15.108Z,95.92
2018-12-10T08:29:15.110Z,95.31
2018-12-10T08:30:15.090Z,93.12
2018-12-10T08:31:15.098Z,91.61
2018-12-10T08:32:15.068Z,92.44
2018-12-10T08:33:15.052Z,92.27
2018-12-10T08:34:15.058Z,92.48
2018-12-10T08:35:15.033Z,92.72
2018-12-10T08:36:15.032Z,92.79
2018-12-10T08:37:15.020Z,92.63
2018-12-10T08:38:15.001Z,92.63
2018-12-10T08:39:15.059Z,93.04
2018-12-10T08:40:14.980Z,92.52
2018-12-10T08:41:14.968Z,92.42
2018-12-10T08:42:14.957Z,92.93
2018-12-10T08:43:14.950Z,92.42
2018-12-10T08:44:14.955Z,93.24
2018-12-10T08:45:14.925Z,93.45
2018-12-10T08:46:14.918Z,92.72
2018-12-10T08:47:16.196Z,92.21
2018-12-10T08:48:14.892Z,92.72
2018-12-10T08:49:14.898Z,92.58
2018-12-10T08:50:14.885Z,92.42
2018-12-10T08:51:15.014Z,92.42
2018-12-10T08:52:14.852Z,91.80
2018-12-10T08:53:14.841Z,91.28
2018-12-10T08:54:14.842Z,91.34
2018-12-10T08:55:14.818Z,91.55
2018-12-10T08:56:14.810Z,91.24
2018-12-10T08:57:14.936Z,90.93
2018-12-10T08:58:14.787Z,90.10
2018-12-10T08:59:14.795Z,89.89
2018-12-10T09:00:14.766Z,89.69
2018-12-10T09:01:14.763Z,89.69
2018-12-10T09:02:14.757Z,90.62
2018-12-10T09:03:14.733Z,89.69
2018-12-10T09:04:14.734Z,90.00
2018-12-10T09:05:14.711Z,91.24
2018-12-10T09:06:14.707Z,91.13
2018-12-10T09:07:14.698Z,90.72
2018-12-10T09:08:14.680Z,91.13
2018-12-10T09:09:14.687Z,90.41
2018-12-10T09:10:14.662Z,91.13
2018-12-10T09:11:14.648Z,90.99
2018-12-10T09:12:14.644Z,90.06
2018-12-10T09:13:14.634Z,90.26
2018-12-10T09:14:14.630Z,89.65
2018-12-10T09:15:14.609Z,89.23
2018-12-10T09:16:14.595Z,88.71
2018-12-10T09:17:14.584Z,88.92
2018-12-10T09:18:14.574Z,89.13
2018-12-10T09:19:14.588Z,89.54
2018-12-10T09:20:14.552Z,88.92
2018-12-10T09:21:14.543Z,89.23
2018-12-10T09:22:14.531Z,89.65
2018-12-10T09:23:14.523Z,89.86
2018-12-10T09:24:14.525Z,89.23
2018-12-10T09:25:14.507Z,89.65
2018-12-10T09:26:14.493Z,89.23
2018-12-10T09:27:14.477Z,90.06
2018-12-10T09:28:19.412Z,89.75
2018-12-10T09:29:15.470Z,89.95
2018-12-10T09:30:14.447Z,89.54
2018-12-10T09:31:14.436Z,90.37
2018-12-10T09:32:14.440Z,90.06
2018-12-10T09:33:14.419Z,88.71
2018-12-10T09:34:14.416Z,88.98
2018-12-10T09:35:14.394Z,90.02
2018-12-10T09:36:14.383Z,89.71
2018-12-10T09:37:14.372Z,90.39
2018-12-10T09:38:14.368Z,89.36
2018-12-10T09:39:14.363Z,89.71
2018-12-10T09:40:14.343Z,90.08
2018-12-10T09:41:14.329Z,89.87
2018-12-10T09:42:14.323Z,89.25
2018-12-10T09:43:14.310Z,89.77
2018-12-10T09:44:14.320Z,89.36
2018-12-10T09:45:14.288Z,90.39
2018-12-10T09:46:14.276Z,88.95
2018-12-10T09:47:14.266Z,88.12
2018-12-10T09:48:14.254Z,88.59
2018-12-10T09:49:14.258Z,88.43
2018-12-10T09:50:14.243Z,87.66
2018-12-10T09:51:14.225Z,88.64
2018-12-10T09:52:14.213Z,86.94
2018-12-10T09:53:14.203Z,88.80
2018-12-10T09:54:14.204Z,86.43
2018-12-10T09:55:14.180Z,87.52
2018-12-10T09:56:14.180Z,87.66
2018-12-10T09:57:14.175Z,86.08
2018-12-10T09:58:14.150Z,87.63
2018-12-10T09:59:14.158Z,85.25
2018-12-10T10:00:14.128Z,85.11
2018-12-10T10:01:14.117Z,85.52
2018-12-10T10:02:14.109Z,85.52
2018-12-10T10:03:14.096Z,85.22
2018-12-10T10:04:14.114Z,84.14
2018-12-10T10:05:14.074Z,84.97
2018-12-10T10:06:14.064Z,83.84
2018-12-10T10:07:14.053Z,84.05
2018-12-10T10:08:14.045Z,84.80
2018-12-10T10:09:14.048Z,84.87
2018-12-10T10:10:14.027Z,84.87
2018-12-10T10:11:14.009Z,85.28
2018-12-10T10:12:13.999Z,83.90
2018-12-10T10:13:13.989Z,84.00
2018-12-10T10:14:14.001Z,84.83
2018-12-10T10:15:13.970Z,84.87
2018-12-10T10:16:13.964Z,83.84
2018-12-10T10:17:13.949Z,83.73
2018-12-10T10:18:13.938Z,84.97
2018-12-10T10:19:13.937Z,84.29
2018-12-10T10:20:13.914Z,84.19
2018-12-10T10:21:13.908Z,83.84
2018-12-10T10:22:13.908Z,85.11
2018-12-10T10:23:13.883Z,86.00
2018-12-10T10:24:13.884Z,84.91
2018-12-10T10:25:13.863Z,84.91
2018-12-10T10:26:13.851Z,84.70
2018-12-10T10:27:13.840Z,85.01
2018-12-10T10:28:13.836Z,85.63
2018-12-10T10:29:13.836Z,84.29
2018-12-10T10:30:13.810Z,85.01
2018-12-10T10:31:13.799Z,85.01
2018-12-10T10:32:13.792Z,84.91
2018-12-10T10:33:13.778Z,84.80
2018-12-10T10:34:13.783Z,83.87
2018-12-10T10:35:13.766Z,83.87
2018-12-10T10:36:13.754Z,83.98
2018-12-10T10:37:13.735Z,84.08
2018-12-10T10:38:15.174Z,83.94
2018-12-10T10:39:13.727Z,83.22
2018-12-10T10:40:13.704Z,82.91
2018-12-10T10:41:13.694Z,84.19
2018-12-10T10:42:13.683Z,85.49
2018-12-10T10:43:13.672Z,84.05
2018-12-10T10:44:13.702Z,84.25
2018-12-10T10:45:13.667Z,83.42
2018-12-10T10:46:13.640Z,83.12
2018-12-10T10:47:13.643Z,81.77
2018-12-10T10:48:13.657Z,83.12
2018-12-10T10:49:13.629Z,82.60
2018-12-10T10:50:13.597Z,83.84
2018-12-10T10:51:13.590Z,83.80
2018-12-10T10:52:13.576Z,83.80
2018-12-10T10:53:13.565Z,83.18
2018-12-10T10:54:13.589Z,83.18
2018-12-10T10:55:13.543Z,83.39
2018-12-10T10:56:13.537Z,83.18
2018-12-10T10:57:13.521Z,83.65
2018-12-10T10:58:13.512Z,82.67
2018-12-10T10:59:13.509Z,82.83
2018-12-10T11:00:13.506Z,83.39
2018-12-10T11:01:13.480Z,81.95
2018-12-10T11:02:13.472Z,81.74
2018-12-10T11:03:13.461Z,82.67
2018-12-10T11:04:13.450Z,81.43
2018-12-10T11:05:13.463Z,81.95
2018-12-10T11:06:13.439Z,83.18
2018-12-10T11:07:13.420Z,82.93
2018-12-10T11:08:13.407Z,82.56
2018-12-10T11:09:15.516Z,81.84
2018-12-10T11:10:13.400Z,81.84
2018-12-10T11:11:13.375Z,83.28
2018-12-10T11:12:13.367Z,81.91
2018-12-10T11:13:13.362Z,82.73
2018-12-10T11:14:13.343Z,81.91
2018-12-10T11:15:13.349Z,81.70
2018-12-10T11:16:13.321Z,83.14
2018-12-10T11:17:13.311Z,82.21
2018-12-10T11:18:13.300Z,81.09
2018-12-10T11:19:13.297Z,80.36
2018-12-10T11:20:13.295Z,81.81
2018-12-10T11:21:13.268Z,81.91
2018-12-10T11:22:13.260Z,83.28
2018-12-10T11:23:13.247Z,81.81
2018-12-10T11:24:13.238Z,81.33
2018-12-10T11:25:13.250Z,81.74
2018-12-10T11:26:13.220Z,81.98
2018-12-10T11:27:13.208Z,80.30
2018-12-10T11:28:13.195Z,81.67
2018-12-10T11:29:13.186Z,81.98
2018-12-10T11:30:13.190Z,80.75
2018-12-10T11:31:17.290Z,81.37
2018-12-10T11:32:13.153Z,81.57
2018-12-10T11:33:13.142Z,83.12
2018-12-10T11:34:13.136Z,81.98
2018-12-10T11:35:13.133Z,82.70
2018-12-10T11:36:13.112Z,84.77
2018-12-10T11:37:13.106Z,83.73
2018-12-10T11:38:13.092Z,84.87
2018-12-10T11:39:13.080Z,84.97
2018-12-10T11:40:13.085Z,85.03
2018-12-10T11:41:13.059Z,84.00
2018-12-10T11:42:13.049Z,83.90
2018-12-10T11:43:13.041Z,82.87
2018-12-10T11:44:13.030Z,82.05
2018-12-10T11:45:13.030Z,83.25
2018-12-10T11:46:13.004Z,82.93
2018-12-10T11:47:13.404Z,82.69
2018-12-10T11:48:12.985Z,82.07
2018-12-10T11:49:13.079Z,82.69
2018-12-10T11:50:13.037Z,81.35
2018-12-10T11:51:12.952Z,81.91
2018-12-10T11:52:12.941Z,82.53
2018-12-10T11:53:12.931Z,81.35
2018-12-10T11:54:12.931Z,82.11
2018-12-10T11:55:12.937Z,83.35
2018-12-10T11:56:12.903Z,82.59
2018-12-10T11:57:12.893Z,82.11
2018-12-10T11:58:12.878Z,80.57
2018-12-10T11:59:12.869Z,81.70
2018-12-10T12:00:12.871Z,82.79
2018-12-10T12:01:12.848Z,82.69
2018-12-10T12:02:12.836Z,81.76
2018-12-10T12:03:12.833Z,81.67
2018-12-10T12:04:12.820Z,84.20
2018-12-10T12:05:12.818Z,82.34
2018-12-10T12:06:12.801Z,81.79
2018-12-10T12:07:12.783Z,81.52
2018-12-10T12:08:12.776Z,79.94
2018-12-10T12:09:12.767Z,80.25
2018-12-10T12:10:12.779Z,80.35
2018-12-10T12:11:12.747Z,79.29
2018-12-10T12:12:12.733Z,77.44
2018-12-10T12:13:12.722Z,77.55
2018-12-10T12:14:12.709Z,76.93
2018-12-10T12:15:12.711Z,77.13
2018-12-10T12:16:12.692Z,76.17
2018-12-10T12:17:12.691Z,75.87
2018-12-10T12:18:12.678Z,77.71
2018-12-10T12:19:12.662Z,77.81
2018-12-10T12:20:12.658Z,77.00
2018-12-10T12:21:12.632Z,76.62
2018-12-10T12:22:12.629Z,77.34
2018-12-10T12:23:12.612Z,77.99
2018-12-10T12:24:12.601Z,76.69
2018-12-10T12:25:12.609Z,77.00
2018-12-10T12:26:12.579Z,77.31
2018-12-10T12:27:12.568Z,78.64
2018-12-10T12:28:12.558Z,78.20
2018-12-10T12:29:12.547Z,77.17
2018-12-10T12:30:12.550Z,77.75
2018-12-10T12:31:12.531Z,78.16
2018-12-10T12:32:12.530Z,77.78
2018-12-10T12:33:12.520Z,77.27
2018-12-10T12:34:12.511Z,76.82
2018-12-10T12:35:12.547Z,76.96
2018-12-10T12:36:12.486Z,77.33
2018-12-10T12:37:12.481Z,75.45
2018-12-10T12:38:12.453Z,75.76
2018-12-10T12:39:12.440Z,75.04
2018-12-10T12:40:12.435Z,75.08
2018-12-10T12:41:12.440Z,73.64
2018-12-10T12:42:12.411Z,75.73
2018-12-10T12:43:16.028Z,74.60
2018-12-10T12:44:12.386Z,75.52
2018-12-10T12:45:12.375Z,75.73
2018-12-10T12:46:12.424Z,74.94
2018-12-10T12:47:12.356Z,74.53
2018-12-10T12:48:12.350Z,73.85
2018-12-10T12:49:12.336Z,75.29
2018-12-10T12:50:12.323Z,74.84
2018-12-10T12:51:12.326Z,75.38
2018-12-10T12:52:12.301Z,73.71